Wichita Mid Continent Airport
KICT : rendu visible

Aérodrome :











RETROUVEZ-NOUS SUR...

 
LOGIN :

S'inscrire | Disclaimer

   EN    FR    IT 

 









Légende :    VFR   VFR Marginal   IFR   IFR Intensif   IFR Très Intensif
Visi : 
Plafond : 
>= 8 km
>= 3000ft
5 à 8 km
1000 à 3000 ft
1500m à 5 km
500 à 1000 ft
800 à 1500m
200 à 500 ft
< 800m
< 200 ft
Symboles :   Orages  Brouillard  Fortes neiges  Fortes précipitations  Vent > 20 kt







- Altitude de l'aérodrome : 1333 ft
- Code IATA : ICT


KICT - Wichita Mid Continent

DERNIER METAR :
  • 260153Z 07008KT 10SM SCT100 BKN150 BKN220 27/21 A3003 RMK AO2 SLP156 T02720206

METARs EXPIRÉS :
  • 260053Z 06013KT 10SM FEW040 FEW090 SCT150 BKN220 28/21 A3002 RMK AO2 SLP151 T02780206
  • 252353Z 05013KT 10SM FEW038 SCT090 BKN150 BKN220 28/22 A3001 RMK AO2 SLP147 T02830217 10317 20267 56002

TAF KICT
Valide du 26 à 00h jusqu'au 27 à 00h UTC


252324Z 2600/2624 05011KT P6SM SCT030 BKN120
FM260200 07005KT P6SM BKN200
FM260900 07004KT 5SM BR SCT020
FM261300 09005KT 6SM BR SCT020
FM261500 10007KT P6SM SCT070
FIR KZKC / Amérique du Nord



MET'MAP, la Météo Aéronautique d'un coup d'oeil ! - Copyright ORBIFLY Décembre 2007 - Disclaimer

ORBIFLY MET'MAP TEAM :

Programmation & Développement : Alexandra Zaïnal
Conception & Développement : Baudouin d'Aumeries
Co-Programmation & Développement : Marc-Olivier Méhu
Soutien technique & logistique : Manuel Goepfert

Contact : metmap@orbifly.com




SOURCES & CREDITS :

   NOAA       Earth
Advisory